sensor_id;sensor_type;location;lat;lon;timestamp;P1;durP1;ratioP1;P2;durP2;ratioP2
2021;SDS011;1015;49.756;6.994;2023-04-25T00:00:26;16.57;;;12.40;;
2021;SDS011;1015;49.756;6.994;2023-04-25T00:02:53;19.60;;;12.93;;
2021;SDS011;1015;49.756;6.994;2023-04-25T00:05:22;20.87;;;13.40;;
2021;SDS011;1015;49.756;6.994;2023-04-25T00:07:49;21.70;;;13.63;;
2021;SDS011;1015;49.756;6.994;2023-04-25T00:10:16;16.90;;;11.87;;
2021;SDS011;1015;49.756;6.994;2023-04-25T00:12:45;20.47;;;13.53;;
2021;SDS011;1015;49.756;6.994;2023-04-25T00:15:12;19.23;;;13.20;;
2021;SDS011;1015;49.756;6.994;2023-04-25T00:17:40;19.20;;;13.70;;
2021;SDS011;1015;49.756;6.994;2023-04-25T00:20:07;19.60;;;14.07;;
2021;SDS011;1015;49.756;6.994;2023-04-25T00:22:35;21.00;;;13.60;;
2021;SDS011;1015;49.756;6.994;2023-04-25T00:25:03;18.10;;;12.60;;
2021;SDS011;1015;49.756;6.994;2023-04-25T00:27:31;18.30;;;13.10;;
2021;SDS011;1015;49.756;6.994;2023-04-25T00:29:59;19.10;;;12.13;;
2021;SDS011;1015;49.756;6.994;2023-04-25T00:32:27;19.27;;;13.10;;
2021;SDS011;1015;49.756;6.994;2023-04-25T00:34:54;20.00;;;12.87;;
2021;SDS011;1015;49.756;6.994;2023-04-25T00:37:22;18.93;;;13.07;;
2021;SDS011;1015;49.756;6.994;2023-04-25T00:39:50;20.50;;;14.00;;
2021;SDS011;1015;49.756;6.994;2023-04-25T00:42:18;20.73;;;12.83;;
2021;SDS011;1015;49.756;6.994;2023-04-25T00:44:45;18.90;;;12.40;;
2021;SDS011;1015;49.756;6.994;2023-04-25T00:47:14;19.60;;;13.60;;
2021;SDS011;1015;49.756;6.994;2023-04-25T00:49:42;19.57;;;13.47;;
2021;SDS011;1015;49.756;6.994;2023-04-25T00:52:09;16.37;;;11.70;;
2021;SDS011;1015;49.756;6.994;2023-04-25T00:54:36;18.17;;;11.80;;
2021;SDS011;1015;49.756;6.994;2023-04-25T00:57:04;19.37;;;12.53;;
2021;SDS011;1015;49.756;6.994;2023-04-25T00:59:31;16.10;;;11.73;;
2021;SDS011;1015;49.756;6.994;2023-04-25T01:01:58;20.43;;;13.53;;
2021;SDS011;1015;49.756;6.994;2023-04-25T01:04:27;17.87;;;12.77;;
2021;SDS011;1015;49.756;6.994;2023-04-25T01:06:54;18.47;;;12.07;;
2021;SDS011;1015;49.756;6.994;2023-04-25T01:09:22;19.73;;;11.60;;
2021;SDS011;1015;49.756;6.994;2023-04-25T01:11:49;16.97;;;12.30;;
2021;SDS011;1015;49.756;6.994;2023-04-25T01:14:17;17.70;;;12.00;;
2021;SDS011;1015;49.756;6.994;2023-04-25T01:16:44;16.07;;;11.60;;
2021;SDS011;1015;49.756;6.994;2023-04-25T01:19:11;16.43;;;12.83;;
2021;SDS011;1015;49.756;6.994;2023-04-25T01:21:40;15.80;;;11.70;;
2021;SDS011;1015;49.756;6.994;2023-04-25T01:24:07;16.03;;;11.47;;
2021;SDS011;1015;49.756;6.994;2023-04-25T01:26:34;16.63;;;11.87;;
2021;SDS011;1015;49.756;6.994;2023-04-25T01:29:02;17.27;;;12.10;;
2021;SDS011;1015;49.756;6.994;2023-04-25T01:31:30;16.90;;;12.17;;
2021;SDS011;1015;49.756;6.994;2023-04-25T01:33:59;14.00;;;10.63;;
2021;SDS011;1015;49.756;6.994;2023-04-25T01:36:26;16.43;;;11.77;;
2021;SDS011;1015;49.756;6.994;2023-04-25T01:38:55;20.43;;;11.37;;
2021;SDS011;1015;49.756;6.994;2023-04-25T01:41:22;15.50;;;12.00;;
2021;SDS011;1015;49.756;6.994;2023-04-25T01:43:49;16.63;;;11.30;;
2021;SDS011;1015;49.756;6.994;2023-04-25T01:46:17;17.10;;;11.00;;
2021;SDS011;1015;49.756;6.994;2023-04-25T01:48:44;16.37;;;11.27;;
2021;SDS011;1015;49.756;6.994;2023-04-25T01:51:11;16.10;;;11.80;;
2021;SDS011;1015;49.756;6.994;2023-04-25T01:53:39;15.53;;;11.33;;
2021;SDS011;1015;49.756;6.994;2023-04-25T01:56:07;16.13;;;12.07;;
2021;SDS011;1015;49.756;6.994;2023-04-25T01:58:35;14.57;;;10.43;;
2021;SDS011;1015;49.756;6.994;2023-04-25T02:01:02;14.80;;;11.40;;
2021;SDS011;1015;49.756;6.994;2023-04-25T02:03:30;16.20;;;11.40;;
2021;SDS011;1015;49.756;6.994;2023-04-25T02:05:58;17.07;;;11.87;;
2021;SDS011;1015;49.756;6.994;2023-04-25T02:08:25;17.03;;;11.70;;
2021;SDS011;1015;49.756;6.994;2023-04-25T02:10:52;20.10;;;12.50;;
2021;SDS011;1015;49.756;6.994;2023-04-25T02:13:21;19.23;;;11.77;;
2021;SDS011;1015;49.756;6.994;2023-04-25T02:15:48;18.90;;;11.70;;
2021;SDS011;1015;49.756;6.994;2023-04-25T02:18:15;16.60;;;11.60;;
2021;SDS011;1015;49.756;6.994;2023-04-25T02:20:43;19.00;;;12.10;;
2021;SDS011;1015;49.756;6.994;2023-04-25T02:23:10;19.33;;;11.70;;
2021;SDS011;1015;49.756;6.994;2023-04-25T02:25:37;17.83;;;12.30;;
2021;SDS011;1015;49.756;6.994;2023-04-25T02:28:04;18.03;;;11.50;;
2021;SDS011;1015;49.756;6.994;2023-04-25T02:30:33;19.90;;;12.13;;
2021;SDS011;1015;49.756;6.994;2023-04-25T02:33:01;20.50;;;12.67;;
2021;SDS011;1015;49.756;6.994;2023-04-25T02:35:28;17.20;;;12.80;;
2021;SDS011;1015;49.756;6.994;2023-04-25T02:37:55;16.80;;;11.77;;
2021;SDS011;1015;49.756;6.994;2023-04-25T02:40:22;16.47;;;11.50;;
2021;SDS011;1015;49.756;6.994;2023-04-25T02:42:49;17.90;;;12.10;;
2021;SDS011;1015;49.756;6.994;2023-04-25T02:45:17;19.10;;;12.50;;
2021;SDS011;1015;49.756;6.994;2023-04-25T02:47:45;17.97;;;11.37;;
2021;SDS011;1015;49.756;6.994;2023-04-25T02:50:12;17.20;;;11.03;;
2021;SDS011;1015;49.756;6.994;2023-04-25T02:52:39;16.10;;;11.10;;
2021;SDS011;1015;49.756;6.994;2023-04-25T02:55:07;17.57;;;12.00;;
2021;SDS011;1015;49.756;6.994;2023-04-25T02:57:35;18.07;;;13.20;;
2021;SDS011;1015;49.756;6.994;2023-04-25T03:00:03;16.07;;;12.20;;
2021;SDS011;1015;49.756;6.994;2023-04-25T03:02:31;18.37;;;11.50;;
2021;SDS011;1015;49.756;6.994;2023-04-25T03:04:59;17.67;;;11.80;;
2021;SDS011;1015;49.756;6.994;2023-04-25T03:07:28;18.90;;;12.87;;
2021;SDS011;1015;49.756;6.994;2023-04-25T03:09:55;20.83;;;13.10;;
2021;SDS011;1015;49.756;6.994;2023-04-25T03:12:22;16.73;;;13.07;;
2021;SDS011;1015;49.756;6.994;2023-04-25T03:14:49;19.20;;;12.97;;
2021;SDS011;1015;49.756;6.994;2023-04-25T03:17:17;19.47;;;13.40;;
2021;SDS011;1015;49.756;6.994;2023-04-25T03:19:44;19.83;;;12.00;;
2021;SDS011;1015;49.756;6.994;2023-04-25T03:22:12;20.43;;;12.77;;
2021;SDS011;1015;49.756;6.994;2023-04-25T03:24:39;16.60;;;11.80;;
2021;SDS011;1015;49.756;6.994;2023-04-25T03:27:07;18.40;;;12.73;;
2021;SDS011;1015;49.756;6.994;2023-04-25T03:29:34;18.17;;;13.00;;
2021;SDS011;1015;49.756;6.994;2023-04-25T03:32:01;19.87;;;12.63;;
2021;SDS011;1015;49.756;6.994;2023-04-25T03:34:28;18.70;;;13.27;;
2021;SDS011;1015;49.756;6.994;2023-04-25T03:36:56;17.30;;;12.83;;
2021;SDS011;1015;49.756;6.994;2023-04-25T03:39:24;16.43;;;11.80;;
2021;SDS011;1015;49.756;6.994;2023-04-25T03:41:51;19.50;;;12.90;;
2021;SDS011;1015;49.756;6.994;2023-04-25T03:44:18;16.63;;;12.10;;
2021;SDS011;1015;49.756;6.994;2023-04-25T03:46:46;16.77;;;11.17;;
2021;SDS011;1015;49.756;6.994;2023-04-25T03:49:13;16.43;;;10.60;;
2021;SDS011;1015;49.756;6.994;2023-04-25T03:51:40;12.10;;;9.07;;
2021;SDS011;1015;49.756;6.994;2023-04-25T03:54:07;14.50;;;10.80;;
2021;SDS011;1015;49.756;6.994;2023-04-25T03:56:36;15.40;;;12.00;;
2021;SDS011;1015;49.756;6.994;2023-04-25T03:59:03;20.43;;;12.17;;
2021;SDS011;1015;49.756;6.994;2023-04-25T04:01:30;22.37;;;13.30;;
2021;SDS011;1015;49.756;6.994;2023-04-25T04:03:57;20.43;;;12.43;;
2021;SDS011;1015;49.756;6.994;2023-04-25T04:06:25;15.80;;;11.27;;
2021;SDS011;1015;49.756;6.994;2023-04-25T04:08:52;19.53;;;13.40;;
2021;SDS011;1015;49.756;6.994;2023-04-25T04:11:20;19.20;;;13.50;;
2021;SDS011;1015;49.756;6.994;2023-04-25T04:13:48;20.30;;;12.67;;
2021;SDS011;1015;49.756;6.994;2023-04-25T04:16:16;21.20;;;13.83;;
2021;SDS011;1015;49.756;6.994;2023-04-25T04:18:44;21.67;;;12.27;;
2021;SDS011;1015;49.756;6.994;2023-04-25T04:21:11;21.70;;;12.30;;
2021;SDS011;1015;49.756;6.994;2023-04-25T04:23:38;21.87;;;13.43;;
2021;SDS011;1015;49.756;6.994;2023-04-25T04:26:06;18.60;;;12.00;;
2021;SDS011;1015;49.756;6.994;2023-04-25T04:28:33;19.23;;;12.40;;
2021;SDS011;1015;49.756;6.994;2023-04-25T04:31:02;19.33;;;12.17;;
2021;SDS011;1015;49.756;6.994;2023-04-25T04:33:29;20.90;;;13.37;;
2021;SDS011;1015;49.756;6.994;2023-04-25T04:35:57;20.93;;;13.47;;
2021;SDS011;1015;49.756;6.994;2023-04-25T04:38:24;24.77;;;13.60;;
2021;SDS011;1015;49.756;6.994;2023-04-25T04:40:51;21.43;;;13.03;;
2021;SDS011;1015;49.756;6.994;2023-04-25T04:43:18;13.97;;;9.37;;
2021;SDS011;1015;49.756;6.994;2023-04-25T04:45:45;14.30;;;9.90;;
2021;SDS011;1015;49.756;6.994;2023-04-25T04:48:16;12.57;;;9.60;;
2021;SDS011;1015;49.756;6.994;2023-04-25T04:50:43;18.23;;;10.87;;
2021;SDS011;1015;49.756;6.994;2023-04-25T04:53:11;17.93;;;10.53;;
2021;SDS011;1015;49.756;6.994;2023-04-25T04:55:38;18.70;;;10.67;;
2021;SDS011;1015;49.756;6.994;2023-04-25T04:58:06;18.27;;;12.00;;
2021;SDS011;1015;49.756;6.994;2023-04-25T05:00:33;15.43;;;10.83;;
2021;SDS011;1015;49.756;6.994;2023-04-25T05:03:00;16.20;;;9.60;;
2021;SDS011;1015;49.756;6.994;2023-04-25T05:05:29;17.63;;;10.87;;
2021;SDS011;1015;49.756;6.994;2023-04-25T05:07:56;13.47;;;9.23;;
2021;SDS011;1015;49.756;6.994;2023-04-25T05:10:23;11.70;;;8.57;;
2021;SDS011;1015;49.756;6.994;2023-04-25T05:12:51;10.73;;;7.90;;
2021;SDS011;1015;49.756;6.994;2023-04-25T05:15:18;12.70;;;8.83;;
2021;SDS011;1015;49.756;6.994;2023-04-25T05:17:45;14.53;;;8.87;;
2021;SDS011;1015;49.756;6.994;2023-04-25T05:20:12;13.80;;;10.27;;
2021;SDS011;1015;49.756;6.994;2023-04-25T05:22:41;14.07;;;10.00;;
2021;SDS011;1015;49.756;6.994;2023-04-25T05:25:08;15.10;;;10.63;;
2021;SDS011;1015;49.756;6.994;2023-04-25T05:27:36;18.40;;;11.83;;
2021;SDS011;1015;49.756;6.994;2023-04-25T05:30:03;21.90;;;13.50;;
2021;SDS011;1015;49.756;6.994;2023-04-25T05:32:31;18.83;;;12.37;;
2021;SDS011;1015;49.756;6.994;2023-04-25T05:34:58;21.37;;;13.17;;
2021;SDS011;1015;49.756;6.994;2023-04-25T05:37:25;21.27;;;13.20;;
2021;SDS011;1015;49.756;6.994;2023-04-25T05:39:54;21.57;;;13.57;;
2021;SDS011;1015;49.756;6.994;2023-04-25T05:42:21;22.70;;;14.20;;
2021;SDS011;1015;49.756;6.994;2023-04-25T05:44:48;21.00;;;13.40;;
2021;SDS011;1015;49.756;6.994;2023-04-25T05:47:15;20.73;;;14.07;;
2021;SDS011;1015;49.756;6.994;2023-04-25T05:49:42;18.77;;;12.97;;
2021;SDS011;1015;49.756;6.994;2023-04-25T05:52:09;19.43;;;12.10;;
2021;SDS011;1015;49.756;6.994;2023-04-25T05:54:37;20.23;;;12.27;;
2021;SDS011;1015;49.756;6.994;2023-04-25T05:57:05;18.63;;;12.80;;
2021;SDS011;1015;49.756;6.994;2023-04-25T05:59:33;19.17;;;13.50;;
2021;SDS011;1015;49.756;6.994;2023-04-25T06:02:00;13.60;;;10.90;;
2021;SDS011;1015;49.756;6.994;2023-04-25T06:04:28;17.70;;;11.10;;
2021;SDS011;1015;49.756;6.994;2023-04-25T06:06:55;16.40;;;11.20;;
2021;SDS011;1015;49.756;6.994;2023-04-25T06:09:22;15.20;;;10.20;;
2021;SDS011;1015;49.756;6.994;2023-04-25T06:11:49;15.80;;;10.17;;
2021;SDS011;1015;49.756;6.994;2023-04-25T06:14:18;14.00;;;9.87;;
2021;SDS011;1015;49.756;6.994;2023-04-25T06:16:45;14.30;;;10.30;;
2021;SDS011;1015;49.756;6.994;2023-04-25T06:19:12;17.90;;;10.23;;
2021;SDS011;1015;49.756;6.994;2023-04-25T06:21:39;14.13;;;9.50;;
2021;SDS011;1015;49.756;6.994;2023-04-25T06:24:06;16.73;;;10.47;;
2021;SDS011;1015;49.756;6.994;2023-04-25T06:26:33;13.20;;;9.90;;
2021;SDS011;1015;49.756;6.994;2023-04-25T06:29:01;15.17;;;9.90;;
2021;SDS011;1015;49.756;6.994;2023-04-25T06:31:29;16.90;;;10.87;;
2021;SDS011;1015;49.756;6.994;2023-04-25T06:33:57;18.13;;;11.00;;
2021;SDS011;1015;49.756;6.994;2023-04-25T06:36:24;16.33;;;10.10;;
2021;SDS011;1015;49.756;6.994;2023-04-25T06:38:52;17.90;;;11.63;;
2021;SDS011;1015;49.756;6.994;2023-04-25T06:41:20;15.77;;;11.40;;
2021;SDS011;1015;49.756;6.994;2023-04-25T06:43:47;19.30;;;12.20;;
2021;SDS011;1015;49.756;6.994;2023-04-25T06:46:14;19.33;;;11.83;;
2021;SDS011;1015;49.756;6.994;2023-04-25T06:48:43;19.10;;;12.37;;
2021;SDS011;1015;49.756;6.994;2023-04-25T06:51:10;18.03;;;11.30;;
2021;SDS011;1015;49.756;6.994;2023-04-25T06:53:38;17.93;;;11.23;;
2021;SDS011;1015;49.756;6.994;2023-04-25T06:56:05;21.47;;;11.83;;
2021;SDS011;1015;49.756;6.994;2023-04-25T06:58:32;16.30;;;11.37;;
2021;SDS011;1015;49.756;6.994;2023-04-25T07:00:59;16.40;;;11.73;;
2021;SDS011;1015;49.756;6.994;2023-04-25T07:03:27;16.43;;;11.40;;
2021;SDS011;1015;49.756;6.994;2023-04-25T07:05:55;16.77;;;11.10;;
2021;SDS011;1015;49.756;6.994;2023-04-25T07:08:22;21.73;;;11.87;;
2021;SDS011;1015;49.756;6.994;2023-04-25T07:10:49;15.43;;;9.67;;
2021;SDS011;1015;49.756;6.994;2023-04-25T07:13:17;19.30;;;11.13;;
2021;SDS011;1015;49.756;6.994;2023-04-25T07:15:44;22.37;;;11.53;;
2021;SDS011;1015;49.756;6.994;2023-04-25T07:18:13;17.80;;;10.63;;
2021;SDS011;1015;49.756;6.994;2023-04-25T07:20:40;20.10;;;11.07;;
2021;SDS011;1015;49.756;6.994;2023-04-25T07:23:08;18.00;;;11.00;;
2021;SDS011;1015;49.756;6.994;2023-04-25T07:25:36;15.60;;;10.37;;
2021;SDS011;1015;49.756;6.994;2023-04-25T07:28:03;18.63;;;10.50;;
2021;SDS011;1015;49.756;6.994;2023-04-25T07:30:30;14.87;;;9.10;;
2021;SDS011;1015;49.756;6.994;2023-04-25T07:32:58;16.17;;;10.53;;
2021;SDS011;1015;49.756;6.994;2023-04-25T07:35:26;13.13;;;9.40;;
2021;SDS011;1015;49.756;6.994;2023-04-25T07:37:53;12.70;;;9.03;;
2021;SDS011;1015;49.756;6.994;2023-04-25T07:40:22;16.93;;;9.40;;
2021;SDS011;1015;49.756;6.994;2023-04-25T07:42:49;15.60;;;9.37;;
2021;SDS011;1015;49.756;6.994;2023-04-25T07:45:16;11.10;;;7.50;;
2021;SDS011;1015;49.756;6.994;2023-04-25T07:47:43;11.00;;;7.87;;
2021;SDS011;1015;49.756;6.994;2023-04-25T07:50:10;13.77;;;8.00;;
2021;SDS011;1015;49.756;6.994;2023-04-25T07:52:38;12.13;;;7.40;;
2021;SDS011;1015;49.756;6.994;2023-04-25T07:55:05;12.27;;;8.20;;
2021;SDS011;1015;49.756;6.994;2023-04-25T07:57:33;9.10;;;6.53;;
2021;SDS011;1015;49.756;6.994;2023-04-25T08:00:01;15.07;;;7.40;;
2021;SDS011;1015;49.756;6.994;2023-04-25T08:02:28;10.47;;;6.67;;
2021;SDS011;1015;49.756;6.994;2023-04-25T08:04:55;13.87;;;8.00;;
2021;SDS011;1015;49.756;6.994;2023-04-25T08:07:22;10.80;;;6.90;;
2021;SDS011;1015;49.756;6.994;2023-04-25T08:09:50;11.87;;;7.07;;
2021;SDS011;1015;49.756;6.994;2023-04-25T08:12:17;10.83;;;7.50;;
2021;SDS011;1015;49.756;6.994;2023-04-25T08:14:46;7.60;;;6.20;;
2021;SDS011;1015;49.756;6.994;2023-04-25T08:17:13;9.80;;;6.77;;
2021;SDS011;1015;49.756;6.994;2023-04-25T08:19:40;13.50;;;6.60;;
2021;SDS011;1015;49.756;6.994;2023-04-25T08:22:07;11.07;;;7.30;;
2021;SDS011;1015;49.756;6.994;2023-04-25T08:24:34;13.67;;;7.47;;
2021;SDS011;1015;49.756;6.994;2023-04-25T08:27:02;11.60;;;7.20;;
2021;SDS011;1015;49.756;6.994;2023-04-25T08:29:29;9.90;;;6.23;;
2021;SDS011;1015;49.756;6.994;2023-04-25T08:31:57;10.57;;;7.40;;
2021;SDS011;1015;49.756;6.994;2023-04-25T08:34:25;9.97;;;6.50;;
2021;SDS011;1015;49.756;6.994;2023-04-25T08:36:52;10.17;;;6.17;;
2021;SDS011;1015;49.756;6.994;2023-04-25T08:39:19;11.70;;;5.63;;
2021;SDS011;1015;49.756;6.994;2023-04-25T08:41:47;10.07;;;6.53;;
2021;SDS011;1015;49.756;6.994;2023-04-25T08:44:14;8.17;;;6.70;;
2021;SDS011;1015;49.756;6.994;2023-04-25T08:46:41;10.20;;;6.23;;
2021;SDS011;1015;49.756;6.994;2023-04-25T08:49:10;10.77;;;6.00;;
2021;SDS011;1015;49.756;6.994;2023-04-25T08:51:41;8.37;;;5.70;;
2021;SDS011;1015;49.756;6.994;2023-04-25T08:54:12;7.57;;;5.33;;
2021;SDS011;1015;49.756;6.994;2023-04-25T08:56:40;11.17;;;6.00;;
2021;SDS011;1015;49.756;6.994;2023-04-25T08:59:07;13.60;;;7.30;;
2021;SDS011;1015;49.756;6.994;2023-04-25T09:01:34;9.33;;;5.83;;
2021;SDS011;1015;49.756;6.994;2023-04-25T09:04:02;7.30;;;5.37;;
2021;SDS011;1015;49.756;6.994;2023-04-25T09:06:30;7.03;;;4.37;;
2021;SDS011;1015;49.756;6.994;2023-04-25T09:09:01;6.90;;;4.97;;
2021;SDS011;1015;49.756;6.994;2023-04-25T09:11:29;7.63;;;5.03;;
2021;SDS011;1015;49.756;6.994;2023-04-25T09:14:09;6.50;;;4.97;;
2021;SDS011;1015;49.756;6.994;2023-04-25T09:16:42;5.83;;;4.40;;
2021;SDS011;1015;49.756;6.994;2023-04-25T09:19:25;8.80;;;4.30;;
2021;SDS011;1015;49.756;6.994;2023-04-25T09:21:55;5.53;;;4.00;;
2021;SDS011;1015;49.756;6.994;2023-04-25T09:24:29;5.97;;;4.23;;
2021;SDS011;1015;49.756;6.994;2023-04-25T09:26:57;5.37;;;4.30;;
2021;SDS011;1015;49.756;6.994;2023-04-25T09:29:29;5.87;;;4.30;;
2021;SDS011;1015;49.756;6.994;2023-04-25T09:32:10;6.73;;;4.57;;
2021;SDS011;1015;49.756;6.994;2023-04-25T09:34:38;4.20;;;3.73;;
2021;SDS011;1015;49.756;6.994;2023-04-25T09:37:08;6.33;;;4.30;;
2021;SDS011;1015;49.756;6.994;2023-04-25T09:39:35;4.63;;;2.73;;
2021;SDS011;1015;49.756;6.994;2023-04-25T09:42:03;2.33;;;1.67;;
2021;SDS011;1015;49.756;6.994;2023-04-25T09:44:30;3.70;;;1.90;;
2021;SDS011;1015;49.756;6.994;2023-04-25T09:46:57;5.23;;;3.17;;
2021;SDS011;1015;49.756;6.994;2023-04-25T09:49:25;3.10;;;2.30;;
2021;SDS011;1015;49.756;6.994;2023-04-25T09:51:53;6.03;;;3.40;;
2021;SDS011;1015;49.756;6.994;2023-04-25T09:54:23;9.90;;;3.43;;
2021;SDS011;1015;49.756;6.994;2023-04-25T09:56:51;5.17;;;3.40;;
2021;SDS011;1015;49.756;6.994;2023-04-25T09:59:19;7.03;;;3.30;;
2021;SDS011;1015;49.756;6.994;2023-04-25T10:01:46;6.90;;;2.90;;
2021;SDS011;1015;49.756;6.994;2023-04-25T10:04:19;5.60;;;3.10;;
2021;SDS011;1015;49.756;6.994;2023-04-25T10:06:48;4.83;;;2.97;;
2021;SDS011;1015;49.756;6.994;2023-04-25T10:09:19;5.33;;;2.97;;
2021;SDS011;1015;49.756;6.994;2023-04-25T10:11:49;5.57;;;2.90;;
2021;SDS011;1015;49.756;6.994;2023-04-25T10:14:17;4.10;;;3.60;;
2021;SDS011;1015;49.756;6.994;2023-04-25T10:16:45;4.87;;;3.00;;
2021;SDS011;1015;49.756;6.994;2023-04-25T10:19:14;4.30;;;3.90;;
2021;SDS011;1015;49.756;6.994;2023-04-25T10:21:52;4.10;;;3.20;;
2021;SDS011;1015;49.756;6.994;2023-04-25T10:24:19;3.43;;;2.90;;
2021;SDS011;1015;49.756;6.994;2023-04-25T10:26:51;5.40;;;3.07;;
2021;SDS011;1015;49.756;6.994;2023-04-25T10:29:22;4.80;;;3.30;;
2021;SDS011;1015;49.756;6.994;2023-04-25T10:31:50;6.27;;;3.43;;
2021;SDS011;1015;49.756;6.994;2023-04-25T10:34:17;3.60;;;2.70;;
2021;SDS011;1015;49.756;6.994;2023-04-25T10:36:49;6.33;;;3.07;;
2021;SDS011;1015;49.756;6.994;2023-04-25T10:39:21;4.77;;;2.90;;
2021;SDS011;1015;49.756;6.994;2023-04-25T10:41:53;3.10;;;2.63;;
2021;SDS011;1015;49.756;6.994;2023-04-25T10:44:22;3.87;;;3.03;;
2021;SDS011;1015;49.756;6.994;2023-04-25T10:46:52;3.57;;;2.80;;
2021;SDS011;1015;49.756;6.994;2023-04-25T10:49:30;7.40;;;3.03;;
2021;SDS011;1015;49.756;6.994;2023-04-25T10:52:14;5.17;;;3.00;;
2021;SDS011;1015;49.756;6.994;2023-04-25T10:54:46;4.10;;;3.40;;
2021;SDS011;1015;49.756;6.994;2023-04-25T10:57:37;3.83;;;2.80;;
2021;SDS011;1015;49.756;6.994;2023-04-25T11:00:22;7.03;;;2.97;;
2021;SDS011;1015;49.756;6.994;2023-04-25T11:02:53;3.10;;;2.63;;
2021;SDS011;1015;49.756;6.994;2023-04-25T11:05:26;3.93;;;2.80;;
2021;SDS011;1015;49.756;6.994;2023-04-25T11:07:56;5.13;;;3.07;;
2021;SDS011;1015;49.756;6.994;2023-04-25T11:10:25;6.20;;;3.20;;
2021;SDS011;1015;49.756;6.994;2023-04-25T11:12:54;8.97;;;4.10;;
2021;SDS011;1015;49.756;6.994;2023-04-25T11:15:22;6.70;;;2.53;;
2021;SDS011;1015;49.756;6.994;2023-04-25T11:17:50;4.37;;;3.00;;
2021;SDS011;1015;49.756;6.994;2023-04-25T11:20:18;5.17;;;3.57;;
2021;SDS011;1015;49.756;6.994;2023-04-25T11:22:46;5.53;;;2.60;;
2021;SDS011;1015;49.756;6.994;2023-04-25T11:25:14;4.70;;;2.77;;
2021;SDS011;1015;49.756;6.994;2023-04-25T11:27:53;6.93;;;3.60;;
2021;SDS011;1015;49.756;6.994;2023-04-25T11:30:23;5.40;;;3.00;;
2021;SDS011;1015;49.756;6.994;2023-04-25T11:32:50;7.03;;;3.67;;
2021;SDS011;1015;49.756;6.994;2023-04-25T11:35:18;4.90;;;2.80;;
2021;SDS011;1015;49.756;6.994;2023-04-25T11:37:45;5.07;;;3.40;;
2021;SDS011;1015;49.756;6.994;2023-04-25T11:40:13;6.37;;;3.30;;
2021;SDS011;1015;49.756;6.994;2023-04-25T11:42:43;3.27;;;2.93;;
2021;SDS011;1015;49.756;6.994;2023-04-25T11:45:11;3.90;;;2.87;;
2021;SDS011;1015;49.756;6.994;2023-04-25T11:47:40;6.10;;;3.47;;
2021;SDS011;1015;49.756;6.994;2023-04-25T11:50:07;5.80;;;3.27;;
2021;SDS011;1015;49.756;6.994;2023-04-25T11:52:36;5.40;;;3.50;;
2021;SDS011;1015;49.756;6.994;2023-04-25T11:55:04;6.57;;;3.03;;
2021;SDS011;1015;49.756;6.994;2023-04-25T11:57:33;5.80;;;3.40;;
2021;SDS011;1015;49.756;6.994;2023-04-25T12:00:10;4.53;;;2.47;;
2021;SDS011;1015;49.756;6.994;2023-04-25T12:02:45;4.63;;;3.03;;
2021;SDS011;1015;49.756;6.994;2023-04-25T12:05:13;6.10;;;3.10;;
2021;SDS011;1015;49.756;6.994;2023-04-25T12:07:41;8.60;;;2.80;;
2021;SDS011;1015;49.756;6.994;2023-04-25T12:10:10;6.80;;;3.00;;
2021;SDS011;1015;49.756;6.994;2023-04-25T12:12:38;3.13;;;2.60;;
2021;SDS011;1015;49.756;6.994;2023-04-25T12:15:08;4.00;;;2.93;;
2021;SDS011;1015;49.756;6.994;2023-04-25T12:17:36;8.90;;;3.97;;
2021;SDS011;1015;49.756;6.994;2023-04-25T12:20:09;9.47;;;3.33;;
2021;SDS011;1015;49.756;6.994;2023-04-25T12:22:36;4.80;;;2.67;;
2021;SDS011;1015;49.756;6.994;2023-04-25T12:25:04;4.10;;;2.93;;
2021;SDS011;1015;49.756;6.994;2023-04-25T12:27:32;3.73;;;2.90;;
2021;SDS011;1015;49.756;6.994;2023-04-25T12:30:01;6.47;;;3.53;;
2021;SDS011;1015;49.756;6.994;2023-04-25T12:32:28;4.47;;;2.93;;
2021;SDS011;1015;49.756;6.994;2023-04-25T12:34:56;4.30;;;3.17;;
2021;SDS011;1015;49.756;6.994;2023-04-25T12:37:24;5.80;;;3.80;;
2021;SDS011;1015;49.756;6.994;2023-04-25T12:39:51;2.60;;;2.37;;
2021;SDS011;1015;49.756;6.994;2023-04-25T12:42:19;5.40;;;3.20;;
2021;SDS011;1015;49.756;6.994;2023-04-25T12:44:46;3.80;;;2.93;;
2021;SDS011;1015;49.756;6.994;2023-04-25T12:47:13;8.43;;;3.30;;
2021;SDS011;1015;49.756;6.994;2023-04-25T12:49:40;3.73;;;2.80;;
2021;SDS011;1015;49.756;6.994;2023-04-25T12:52:08;3.47;;;2.53;;
2021;SDS011;1015;49.756;6.994;2023-04-25T12:54:36;3.70;;;2.60;;
2021;SDS011;1015;49.756;6.994;2023-04-25T12:57:03;8.50;;;3.43;;
2021;SDS011;1015;49.756;6.994;2023-04-25T12:59:31;4.20;;;2.60;;
2021;SDS011;1015;49.756;6.994;2023-04-25T13:01:58;4.73;;;2.90;;
2021;SDS011;1015;49.756;6.994;2023-04-25T13:04:25;3.90;;;2.93;;
2021;SDS011;1015;49.756;6.994;2023-04-25T13:06:52;5.10;;;3.00;;
2021;SDS011;1015;49.756;6.994;2023-04-25T13:09:20;4.20;;;2.67;;
2021;SDS011;1015;49.756;6.994;2023-04-25T13:11:48;7.10;;;2.90;;
2021;SDS011;1015;49.756;6.994;2023-04-25T13:14:15;5.13;;;2.50;;
2021;SDS011;1015;49.756;6.994;2023-04-25T13:16:43;3.27;;;2.13;;
2021;SDS011;1015;49.756;6.994;2023-04-25T13:19:10;4.93;;;3.20;;
2021;SDS011;1015;49.756;6.994;2023-04-25T13:21:37;4.57;;;2.67;;
2021;SDS011;1015;49.756;6.994;2023-04-25T13:24:05;3.83;;;2.43;;
2021;SDS011;1015;49.756;6.994;2023-04-25T13:26:32;3.80;;;2.80;;
2021;SDS011;1015;49.756;6.994;2023-04-25T13:29:01;10.83;;;3.10;;
2021;SDS011;1015;49.756;6.994;2023-04-25T13:31:29;5.80;;;3.30;;
2021;SDS011;1015;49.756;6.994;2023-04-25T13:33:56;4.17;;;2.80;;
2021;SDS011;1015;49.756;6.994;2023-04-25T13:36:23;6.10;;;2.80;;
2021;SDS011;1015;49.756;6.994;2023-04-25T13:38:51;5.40;;;3.37;;
2021;SDS011;1015;49.756;6.994;2023-04-25T13:41:18;4.77;;;2.77;;
2021;SDS011;1015;49.756;6.994;2023-04-25T13:43:45;5.77;;;3.00;;
2021;SDS011;1015;49.756;6.994;2023-04-25T13:46:15;5.53;;;2.47;;
2021;SDS011;1015;49.756;6.994;2023-04-25T13:48:42;4.43;;;2.57;;
2021;SDS011;1015;49.756;6.994;2023-04-25T13:51:12;3.80;;;3.43;;
2021;SDS011;1015;49.756;6.994;2023-04-25T13:53:39;4.43;;;2.70;;
2021;SDS011;1015;49.756;6.994;2023-04-25T13:56:06;5.10;;;2.60;;
2021;SDS011;1015;49.756;6.994;2023-04-25T13:58:34;5.33;;;2.60;;
2021;SDS011;1015;49.756;6.994;2023-04-25T14:01:01;2.97;;;2.50;;
2021;SDS011;1015;49.756;6.994;2023-04-25T14:03:29;4.40;;;3.23;;
2021;SDS011;1015;49.756;6.994;2023-04-25T14:05:57;4.50;;;2.50;;
2021;SDS011;1015;49.756;6.994;2023-04-25T14:08:24;3.20;;;2.40;;
2021;SDS011;1015;49.756;6.994;2023-04-25T14:10:51;4.20;;;2.47;;
2021;SDS011;1015;49.756;6.994;2023-04-25T14:13:18;3.97;;;2.40;;
2021;SDS011;1015;49.756;6.994;2023-04-25T14:15:46;4.43;;;2.60;;
2021;SDS011;1015;49.756;6.994;2023-04-25T14:18:13;2.60;;;2.17;;
2021;SDS011;1015;49.756;6.994;2023-04-25T14:20:41;3.27;;;2.13;;
2021;SDS011;1015;49.756;6.994;2023-04-25T14:23:08;3.57;;;2.20;;
2021;SDS011;1015;49.756;6.994;2023-04-25T14:25:35;3.60;;;3.30;;
2021;SDS011;1015;49.756;6.994;2023-04-25T14:28:03;3.23;;;2.33;;
2021;SDS011;1015;49.756;6.994;2023-04-25T14:30:31;2.60;;;2.40;;
2021;SDS011;1015;49.756;6.994;2023-04-25T14:32:58;3.83;;;2.37;;
2021;SDS011;1015;49.756;6.994;2023-04-25T14:35:25;2.20;;;2.00;;
2021;SDS011;1015;49.756;6.994;2023-04-25T14:37:54;3.83;;;2.40;;
2021;SDS011;1015;49.756;6.994;2023-04-25T14:40:21;2.87;;;2.30;;
2021;SDS011;1015;49.756;6.994;2023-04-25T14:42:49;4.17;;;2.70;;
2021;SDS011;1015;49.756;6.994;2023-04-25T14:45:16;6.33;;;3.00;;
2021;SDS011;1015;49.756;6.994;2023-04-25T14:47:43;4.40;;;4.00;;
2021;SDS011;1015;49.756;6.994;2023-04-25T14:50:10;5.10;;;2.73;;
2021;SDS011;1015;49.756;6.994;2023-04-25T14:52:38;5.30;;;2.50;;
2021;SDS011;1015;49.756;6.994;2023-04-25T14:55:07;4.33;;;2.40;;
2021;SDS011;1015;49.756;6.994;2023-04-25T14:57:34;3.87;;;2.10;;
2021;SDS011;1015;49.756;6.994;2023-04-25T15:00:02;3.00;;;2.37;;
2021;SDS011;1015;49.756;6.994;2023-04-25T15:02:31;10.40;;;3.00;;
2021;SDS011;1015;49.756;6.994;2023-04-25T15:04:59;2.57;;;2.37;;